sensor_id;sensor_type;location;lat;lon;timestamp;temperature;humidity
32769;DHT22;23049;54.304;8.826;2023-05-07T00:01:06;9.60;99.90
32769;DHT22;23049;54.304;8.826;2023-05-07T00:03:31;9.60;99.90
32769;DHT22;23049;54.304;8.826;2023-05-07T00:05:57;9.60;99.90
32769;DHT22;23049;54.304;8.826;2023-05-07T00:08:23;9.60;99.90
32769;DHT22;23049;54.304;8.826;2023-05-07T00:10:48;9.50;99.90
32769;DHT22;23049;54.304;8.826;2023-05-07T00:13:14;9.50;99.90
32769;DHT22;23049;54.304;8.826;2023-05-07T00:15:40;9.50;99.90
32769;DHT22;23049;54.304;8.826;2023-05-07T00:18:05;9.50;99.90
32769;DHT22;23049;54.304;8.826;2023-05-07T00:20:31;9.50;99.90
32769;DHT22;23049;54.304;8.826;2023-05-07T00:22:56;9.60;99.90
32769;DHT22;23049;54.304;8.826;2023-05-07T00:25:22;9.60;99.90
32769;DHT22;23049;54.304;8.826;2023-05-07T00:27:47;9.50;99.90
32769;DHT22;23049;54.304;8.826;2023-05-07T00:30:13;9.60;99.90
32769;DHT22;23049;54.304;8.826;2023-05-07T00:32:38;9.60;99.90
32769;DHT22;23049;54.304;8.826;2023-05-07T00:35:04;9.50;99.90
32769;DHT22;23049;54.304;8.826;2023-05-07T00:37:30;9.60;99.90
32769;DHT22;23049;54.304;8.826;2023-05-07T00:39:56;9.50;99.90
32769;DHT22;23049;54.304;8.826;2023-05-07T00:42:22;9.60;99.90
32769;DHT22;23049;54.304;8.826;2023-05-07T00:44:47;9.50;99.90
32769;DHT22;23049;54.304;8.826;2023-05-07T00:47:13;9.60;99.90
32769;DHT22;23049;54.304;8.826;2023-05-07T00:49:39;9.60;99.90
32769;DHT22;23049;54.304;8.826;2023-05-07T00:52:06;9.60;99.90
32769;DHT22;23049;54.304;8.826;2023-05-07T00:54:33;9.60;99.90
32769;DHT22;23049;54.304;8.826;2023-05-07T00:56:59;9.70;99.90
32769;DHT22;23049;54.304;8.826;2023-05-07T00:59:24;9.60;99.90
32769;DHT22;23049;54.304;8.826;2023-05-07T01:01:50;9.60;99.90
32769;DHT22;23049;54.304;8.826;2023-05-07T01:04:15;9.60;99.90
32769;DHT22;23049;54.304;8.826;2023-05-07T01:06:41;9.70;99.90
32769;DHT22;23049;54.304;8.826;2023-05-07T01:09:06;9.60;99.90
32769;DHT22;23049;54.304;8.826;2023-05-07T01:11:32;9.70;99.90
32769;DHT22;23049;54.304;8.826;2023-05-07T01:13:58;9.70;99.90
32769;DHT22;23049;54.304;8.826;2023-05-07T01:16:24;9.70;99.90
32769;DHT22;23049;54.304;8.826;2023-05-07T01:18:50;9.70;99.90
32769;DHT22;23049;54.304;8.826;2023-05-07T01:21:16;9.80;99.90
32769;DHT22;23049;54.304;8.826;2023-05-07T01:23:42;9.80;99.90
32769;DHT22;23049;54.304;8.826;2023-05-07T01:26:09;9.80;99.90
32769;DHT22;23049;54.304;8.826;2023-05-07T01:28:34;9.80;99.90
32769;DHT22;23049;54.304;8.826;2023-05-07T01:31:01;9.90;99.90
32769;DHT22;23049;54.304;8.826;2023-05-07T01:33:27;9.90;99.90
32769;DHT22;23049;54.304;8.826;2023-05-07T01:35:54;9.90;99.90
32769;DHT22;23049;54.304;8.826;2023-05-07T01:38:21;10.00;99.90
32769;DHT22;23049;54.304;8.826;2023-05-07T01:40:47;9.90;99.90
32769;DHT22;23049;54.304;8.826;2023-05-07T01:43:12;9.80;99.90
32769;DHT22;23049;54.304;8.826;2023-05-07T01:45:38;9.80;99.90
32769;DHT22;23049;54.304;8.826;2023-05-07T01:48:04;9.80;99.90
32769;DHT22;23049;54.304;8.826;2023-05-07T01:50:31;9.80;99.90
32769;DHT22;23049;54.304;8.826;2023-05-07T01:52:57;9.80;99.90
32769;DHT22;23049;54.304;8.826;2023-05-07T01:55:22;9.90;99.90
32769;DHT22;23049;54.304;8.826;2023-05-07T01:57:48;9.90;99.90
32769;DHT22;23049;54.304;8.826;2023-05-07T02:00:14;9.90;99.90
32769;DHT22;23049;54.304;8.826;2023-05-07T02:02:40;9.90;99.90
32769;DHT22;23049;54.304;8.826;2023-05-07T02:05:05;9.80;99.90
32769;DHT22;23049;54.304;8.826;2023-05-07T02:07:31;9.90;99.90
32769;DHT22;23049;54.304;8.826;2023-05-07T02:09:56;9.90;99.90
32769;DHT22;23049;54.304;8.826;2023-05-07T02:12:22;9.90;99.90
32769;DHT22;23049;54.304;8.826;2023-05-07T02:14:48;9.90;99.90
32769;DHT22;23049;54.304;8.826;2023-05-07T02:17:13;9.80;99.90
32769;DHT22;23049;54.304;8.826;2023-05-07T02:19:39;9.90;99.90
32769;DHT22;23049;54.304;8.826;2023-05-07T02:22:04;9.90;99.90
32769;DHT22;23049;54.304;8.826;2023-05-07T02:24:30;9.90;99.90
32769;DHT22;23049;54.304;8.826;2023-05-07T02:26:56;9.90;99.90
32769;DHT22;23049;54.304;8.826;2023-05-07T02:29:21;9.90;99.90
32769;DHT22;23049;54.304;8.826;2023-05-07T02:31:47;9.90;99.90
32769;DHT22;23049;54.304;8.826;2023-05-07T02:34:16;9.90;99.90
32769;DHT22;23049;54.304;8.826;2023-05-07T02:36:42;10.00;99.90
32769;DHT22;23049;54.304;8.826;2023-05-07T02:39:07;10.00;99.90
32769;DHT22;23049;54.304;8.826;2023-05-07T02:41:33;10.00;99.90
32769;DHT22;23049;54.304;8.826;2023-05-07T02:43:58;10.00;99.90
32769;DHT22;23049;54.304;8.826;2023-05-07T02:46:24;10.00;99.90
32769;DHT22;23049;54.304;8.826;2023-05-07T02:48:49;10.00;99.90
32769;DHT22;23049;54.304;8.826;2023-05-07T02:51:16;10.00;99.90
32769;DHT22;23049;54.304;8.826;2023-05-07T02:53:41;10.00;99.90
32769;DHT22;23049;54.304;8.826;2023-05-07T02:56:07;10.00;99.90
32769;DHT22;23049;54.304;8.826;2023-05-07T02:58:32;10.10;99.90
32769;DHT22;23049;54.304;8.826;2023-05-07T03:00:58;10.10;99.90
32769;DHT22;23049;54.304;8.826;2023-05-07T03:03:24;10.00;99.90
32769;DHT22;23049;54.304;8.826;2023-05-07T03:05:49;10.00;99.90
32769;DHT22;23049;54.304;8.826;2023-05-07T03:08:15;10.10;99.90
32769;DHT22;23049;54.304;8.826;2023-05-07T03:10:40;10.00;99.90
32769;DHT22;23049;54.304;8.826;2023-05-07T03:13:06;9.90;99.90
32769;DHT22;23049;54.304;8.826;2023-05-07T03:15:31;10.00;99.90
32769;DHT22;23049;54.304;8.826;2023-05-07T03:17:57;9.90;99.90
32769;DHT22;23049;54.304;8.826;2023-05-07T03:20:22;9.90;99.90
32769;DHT22;23049;54.304;8.826;2023-05-07T03:22:48;9.90;99.90
32769;DHT22;23049;54.304;8.826;2023-05-07T03:25:13;9.80;99.90
32769;DHT22;23049;54.304;8.826;2023-05-07T03:27:40;9.80;99.90
32769;DHT22;23049;54.304;8.826;2023-05-07T03:30:07;9.70;99.90
32769;DHT22;23049;54.304;8.826;2023-05-07T03:32:33;9.70;99.90
32769;DHT22;23049;54.304;8.826;2023-05-07T03:34:58;9.80;99.90
32769;DHT22;23049;54.304;8.826;2023-05-07T03:37:24;9.80;99.90
32769;DHT22;23049;54.304;8.826;2023-05-07T03:39:49;9.80;99.90
32769;DHT22;23049;54.304;8.826;2023-05-07T03:42:15;9.80;99.90
32769;DHT22;23049;54.304;8.826;2023-05-07T03:44:40;9.90;99.90
32769;DHT22;23049;54.304;8.826;2023-05-07T03:47:06;9.90;99.90
32769;DHT22;23049;54.304;8.826;2023-05-07T03:49:31;9.80;99.90
32769;DHT22;23049;54.304;8.826;2023-05-07T03:51:57;9.90;99.90
32769;DHT22;23049;54.304;8.826;2023-05-07T03:54:22;9.80;99.90
32769;DHT22;23049;54.304;8.826;2023-05-07T03:56:48;9.70;99.90
32769;DHT22;23049;54.304;8.826;2023-05-07T03:59:13;9.70;99.90
32769;DHT22;23049;54.304;8.826;2023-05-07T04:01:39;9.70;99.90
32769;DHT22;23049;54.304;8.826;2023-05-07T04:04:05;9.70;99.90
32769;DHT22;23049;54.304;8.826;2023-05-07T04:06:30;9.70;99.90
32769;DHT22;23049;54.304;8.826;2023-05-07T04:08:56;9.70;99.90
32769;DHT22;23049;54.304;8.826;2023-05-07T04:11:22;9.70;99.90
32769;DHT22;23049;54.304;8.826;2023-05-07T04:13:48;9.80;99.90
32769;DHT22;23049;54.304;8.826;2023-05-07T04:16:13;9.80;99.90
32769;DHT22;23049;54.304;8.826;2023-05-07T04:18:39;9.80;99.90
32769;DHT22;23049;54.304;8.826;2023-05-07T04:21:04;9.70;99.90
32769;DHT22;23049;54.304;8.826;2023-05-07T04:23:30;9.80;99.90
32769;DHT22;23049;54.304;8.826;2023-05-07T04:25:56;9.80;99.90
32769;DHT22;23049;54.304;8.826;2023-05-07T04:28:22;9.70;99.90
32769;DHT22;23049;54.304;8.826;2023-05-07T04:30:48;9.70;99.90
32769;DHT22;23049;54.304;8.826;2023-05-07T04:33:14;9.70;99.90
32769;DHT22;23049;54.304;8.826;2023-05-07T04:35:42;9.70;99.90
32769;DHT22;23049;54.304;8.826;2023-05-07T04:38:07;9.70;99.90
32769;DHT22;23049;54.304;8.826;2023-05-07T04:40:33;9.70;99.90
32769;DHT22;23049;54.304;8.826;2023-05-07T04:43:00;9.70;99.90
32769;DHT22;23049;54.304;8.826;2023-05-07T04:45:26;9.60;99.90
32769;DHT22;23049;54.304;8.826;2023-05-07T04:47:51;9.70;99.90
32769;DHT22;23049;54.304;8.826;2023-05-07T04:50:17;9.80;99.90
32769;DHT22;23049;54.304;8.826;2023-05-07T04:52:44;9.80;99.90
32769;DHT22;23049;54.304;8.826;2023-05-07T04:55:10;9.70;99.90
32769;DHT22;23049;54.304;8.826;2023-05-07T04:57:36;9.80;99.90
32769;DHT22;23049;54.304;8.826;2023-05-07T05:00:03;9.80;99.90
32769;DHT22;23049;54.304;8.826;2023-05-07T05:02:29;9.80;99.90
32769;DHT22;23049;54.304;8.826;2023-05-07T05:04:55;9.80;99.90
32769;DHT22;23049;54.304;8.826;2023-05-07T05:07:20;9.80;99.90
32769;DHT22;23049;54.304;8.826;2023-05-07T05:09:46;9.70;99.90
32769;DHT22;23049;54.304;8.826;2023-05-07T05:12:11;9.70;99.90
32769;DHT22;23049;54.304;8.826;2023-05-07T05:14:37;9.60;99.90
32769;DHT22;23049;54.304;8.826;2023-05-07T05:17:02;9.70;99.90
32769;DHT22;23049;54.304;8.826;2023-05-07T05:19:28;9.60;99.90
32769;DHT22;23049;54.304;8.826;2023-05-07T05:21:53;9.60;99.90
32769;DHT22;23049;54.304;8.826;2023-05-07T05:24:19;9.60;99.90
32769;DHT22;23049;54.304;8.826;2023-05-07T05:26:45;9.70;99.90
32769;DHT22;23049;54.304;8.826;2023-05-07T05:29:10;9.60;99.90
32769;DHT22;23049;54.304;8.826;2023-05-07T05:31:36;9.70;99.90
32769;DHT22;23049;54.304;8.826;2023-05-07T05:34:02;9.80;99.90
32769;DHT22;23049;54.304;8.826;2023-05-07T05:36:27;9.70;99.90
32769;DHT22;23049;54.304;8.826;2023-05-07T05:38:53;9.70;99.90
32769;DHT22;23049;54.304;8.826;2023-05-07T05:41:18;9.80;99.90
32769;DHT22;23049;54.304;8.826;2023-05-07T05:43:44;9.70;99.90
32769;DHT22;23049;54.304;8.826;2023-05-07T05:46:09;9.70;99.90
32769;DHT22;23049;54.304;8.826;2023-05-07T05:48:36;9.80;99.90
32769;DHT22;23049;54.304;8.826;2023-05-07T05:51:02;9.80;99.90
32769;DHT22;23049;54.304;8.826;2023-05-07T05:53:28;9.80;99.90
32769;DHT22;23049;54.304;8.826;2023-05-07T05:55:53;9.80;99.90
32769;DHT22;23049;54.304;8.826;2023-05-07T05:58:19;9.80;99.90
32769;DHT22;23049;54.304;8.826;2023-05-07T06:00:45;10.00;99.90
32769;DHT22;23049;54.304;8.826;2023-05-07T06:03:11;10.00;99.90
32769;DHT22;23049;54.304;8.826;2023-05-07T06:05:36;10.00;99.90
32769;DHT22;23049;54.304;8.826;2023-05-07T06:08:02;10.00;99.90
32769;DHT22;23049;54.304;8.826;2023-05-07T06:10:27;10.00;99.90
32769;DHT22;23049;54.304;8.826;2023-05-07T06:12:53;10.10;99.90
32769;DHT22;23049;54.304;8.826;2023-05-07T06:15:18;10.00;99.90
32769;DHT22;23049;54.304;8.826;2023-05-07T06:17:44;10.00;99.90
32769;DHT22;23049;54.304;8.826;2023-05-07T06:20:10;10.10;99.90
32769;DHT22;23049;54.304;8.826;2023-05-07T06:22:35;10.10;99.90
32769;DHT22;23049;54.304;8.826;2023-05-07T06:25:01;10.20;99.90
32769;DHT22;23049;54.304;8.826;2023-05-07T06:27:26;10.20;99.90
32769;DHT22;23049;54.304;8.826;2023-05-07T06:29:53;10.20;99.90
32769;DHT22;23049;54.304;8.826;2023-05-07T06:32:18;10.30;99.90
32769;DHT22;23049;54.304;8.826;2023-05-07T06:34:44;10.30;99.90
32769;DHT22;23049;54.304;8.826;2023-05-07T06:37:10;10.30;99.90
32769;DHT22;23049;54.304;8.826;2023-05-07T06:39:35;10.40;99.90
32769;DHT22;23049;54.304;8.826;2023-05-07T06:42:01;10.50;99.90
32769;DHT22;23049;54.304;8.826;2023-05-07T06:44:27;10.50;99.90
32769;DHT22;23049;54.304;8.826;2023-05-07T06:46:53;10.70;99.90
32769;DHT22;23049;54.304;8.826;2023-05-07T06:49:18;10.60;99.90
32769;DHT22;23049;54.304;8.826;2023-05-07T06:51:44;10.60;99.90
32769;DHT22;23049;54.304;8.826;2023-05-07T06:54:09;10.50;99.90
32769;DHT22;23049;54.304;8.826;2023-05-07T06:56:35;10.60;99.90
32769;DHT22;23049;54.304;8.826;2023-05-07T06:59:01;10.50;99.90
32769;DHT22;23049;54.304;8.826;2023-05-07T07:01:27;10.40;99.90
32769;DHT22;23049;54.304;8.826;2023-05-07T07:03:53;10.60;99.90
32769;DHT22;23049;54.304;8.826;2023-05-07T07:06:18;10.60;99.90
32769;DHT22;23049;54.304;8.826;2023-05-07T07:08:44;10.60;99.90
32769;DHT22;23049;54.304;8.826;2023-05-07T07:11:10;10.80;99.90
32769;DHT22;23049;54.304;8.826;2023-05-07T07:13:35;10.90;99.90
32769;DHT22;23049;54.304;8.826;2023-05-07T07:16:01;11.00;99.90
32769;DHT22;23049;54.304;8.826;2023-05-07T07:18:26;11.00;99.90
32769;DHT22;23049;54.304;8.826;2023-05-07T07:20:52;11.10;99.90
32769;DHT22;23049;54.304;8.826;2023-05-07T07:23:17;11.10;99.90
32769;DHT22;23049;54.304;8.826;2023-05-07T07:25:43;10.90;99.90
32769;DHT22;23049;54.304;8.826;2023-05-07T07:28:08;10.80;99.90
32769;DHT22;23049;54.304;8.826;2023-05-07T07:30:35;11.00;99.90
32769;DHT22;23049;54.304;8.826;2023-05-07T07:33:01;11.10;99.90
32769;DHT22;23049;54.304;8.826;2023-05-07T07:35:31;11.00;99.90
32769;DHT22;23049;54.304;8.826;2023-05-07T07:37:57;10.90;99.90
32769;DHT22;23049;54.304;8.826;2023-05-07T07:40:22;11.10;99.90
32769;DHT22;23049;54.304;8.826;2023-05-07T07:42:48;11.30;99.90
32769;DHT22;23049;54.304;8.826;2023-05-07T07:45:13;11.20;99.90
32769;DHT22;23049;54.304;8.826;2023-05-07T07:47:39;11.20;99.90
32769;DHT22;23049;54.304;8.826;2023-05-07T07:50:05;11.40;99.90
32769;DHT22;23049;54.304;8.826;2023-05-07T07:52:31;11.50;99.90
32769;DHT22;23049;54.304;8.826;2023-05-07T07:54:57;11.60;99.90
32769;DHT22;23049;54.304;8.826;2023-05-07T07:57:22;11.60;99.90
32769;DHT22;23049;54.304;8.826;2023-05-07T07:59:48;11.60;99.90
32769;DHT22;23049;54.304;8.826;2023-05-07T08:02:14;11.60;99.90
32769;DHT22;23049;54.304;8.826;2023-05-07T08:04:40;11.60;99.90
32769;DHT22;23049;54.304;8.826;2023-05-07T08:07:05;11.50;99.90
32769;DHT22;23049;54.304;8.826;2023-05-07T08:09:31;11.40;99.90
32769;DHT22;23049;54.304;8.826;2023-05-07T08:11:57;11.50;99.90
32769;DHT22;23049;54.304;8.826;2023-05-07T08:14:22;11.50;99.90
32769;DHT22;23049;54.304;8.826;2023-05-07T08:16:48;11.50;99.90
32769;DHT22;23049;54.304;8.826;2023-05-07T08:19:13;11.40;99.90
32769;DHT22;23049;54.304;8.826;2023-05-07T08:21:39;11.50;99.90
32769;DHT22;23049;54.304;8.826;2023-05-07T08:24:05;11.50;99.90
32769;DHT22;23049;54.304;8.826;2023-05-07T08:26:30;11.60;99.90
32769;DHT22;23049;54.304;8.826;2023-05-07T08:28:56;11.60;99.90
32769;DHT22;23049;54.304;8.826;2023-05-07T08:31:21;11.50;99.90
32769;DHT22;23049;54.304;8.826;2023-05-07T08:33:47;11.40;99.90
32769;DHT22;23049;54.304;8.826;2023-05-07T08:36:12;11.60;99.90
32769;DHT22;23049;54.304;8.826;2023-05-07T08:38:38;11.60;99.90
32769;DHT22;23049;54.304;8.826;2023-05-07T08:41:05;11.70;99.90
32769;DHT22;23049;54.304;8.826;2023-05-07T08:43:32;11.80;99.90
32769;DHT22;23049;54.304;8.826;2023-05-07T08:45:58;12.00;99.90
32769;DHT22;23049;54.304;8.826;2023-05-07T08:48:26;12.20;99.90
32769;DHT22;23049;54.304;8.826;2023-05-07T08:50:52;12.30;99.90
32769;DHT22;23049;54.304;8.826;2023-05-07T08:53:18;12.40;99.90
32769;DHT22;23049;54.304;8.826;2023-05-07T08:55:45;12.30;99.90
32769;DHT22;23049;54.304;8.826;2023-05-07T08:58:11;12.40;99.90
32769;DHT22;23049;54.304;8.826;2023-05-07T09:00:36;12.30;99.90
32769;DHT22;23049;54.304;8.826;2023-05-07T09:03:02;12.40;99.90
32769;DHT22;23049;54.304;8.826;2023-05-07T09:05:28;12.40;99.90
32769;DHT22;23049;54.304;8.826;2023-05-07T09:07:53;12.50;99.90
32769;DHT22;23049;54.304;8.826;2023-05-07T09:10:20;12.50;99.90
32769;DHT22;23049;54.304;8.826;2023-05-07T09:12:46;12.50;99.90
32769;DHT22;23049;54.304;8.826;2023-05-07T09:15:12;12.50;99.90
32769;DHT22;23049;54.304;8.826;2023-05-07T09:17:37;12.50;99.90
32769;DHT22;23049;54.304;8.826;2023-05-07T09:20:04;12.50;99.90
32769;DHT22;23049;54.304;8.826;2023-05-07T09:22:33;12.60;99.90
32769;DHT22;23049;54.304;8.826;2023-05-07T09:24:59;12.70;99.90
32769;DHT22;23049;54.304;8.826;2023-05-07T09:27:24;13.00;99.90
32769;DHT22;23049;54.304;8.826;2023-05-07T09:29:50;12.90;99.90
32769;DHT22;23049;54.304;8.826;2023-05-07T09:32:15;13.10;99.90
32769;DHT22;23049;54.304;8.826;2023-05-07T09:34:41;13.20;99.90
32769;DHT22;23049;54.304;8.826;2023-05-07T09:37:07;13.40;99.90
32769;DHT22;23049;54.304;8.826;2023-05-07T09:39:42;13.40;99.90
32769;DHT22;23049;54.304;8.826;2023-05-07T09:42:08;13.10;99.90
32769;DHT22;23049;54.304;8.826;2023-05-07T09:44:34;13.00;99.90
32769;DHT22;23049;54.304;8.826;2023-05-07T09:47:00;12.70;99.90
32769;DHT22;23049;54.304;8.826;2023-05-07T09:49:27;12.80;99.90
32769;DHT22;23049;54.304;8.826;2023-05-07T09:51:55;12.80;99.90
32769;DHT22;23049;54.304;8.826;2023-05-07T09:54:22;12.60;99.90
32769;DHT22;23049;54.304;8.826;2023-05-07T09:56:50;12.70;99.90
32769;DHT22;23049;54.304;8.826;2023-05-07T09:59:16;12.80;99.90
32769;DHT22;23049;54.304;8.826;2023-05-07T10:01:43;12.70;99.90
32769;DHT22;23049;54.304;8.826;2023-05-07T10:04:09;12.80;99.90
32769;DHT22;23049;54.304;8.826;2023-05-07T10:06:35;12.80;99.90
32769;DHT22;23049;54.304;8.826;2023-05-07T10:09:01;12.80;99.90
32769;DHT22;23049;54.304;8.826;2023-05-07T10:11:27;12.60;99.90
32769;DHT22;23049;54.304;8.826;2023-05-07T10:13:53;12.70;99.90
32769;DHT22;23049;54.304;8.826;2023-05-07T10:16:18;12.80;99.90
32769;DHT22;23049;54.304;8.826;2023-05-07T10:18:44;12.80;99.90
32769;DHT22;23049;54.304;8.826;2023-05-07T10:21:17;12.90;99.90
32769;DHT22;23049;54.304;8.826;2023-05-07T10:23:50;12.90;99.90
32769;DHT22;23049;54.304;8.826;2023-05-07T10:26:17;12.80;99.90
32769;DHT22;23049;54.304;8.826;2023-05-07T10:28:44;13.00;99.90
32769;DHT22;23049;54.304;8.826;2023-05-07T10:33:36;13.20;99.90
32769;DHT22;23049;54.304;8.826;2023-05-07T10:36:03;13.20;99.90
32769;DHT22;23049;54.304;8.826;2023-05-07T10:38:29;13.20;99.90
32769;DHT22;23049;54.304;8.826;2023-05-07T10:40:55;13.10;99.90
32769;DHT22;23049;54.304;8.826;2023-05-07T10:43:21;12.90;99.90
32769;DHT22;23049;54.304;8.826;2023-05-07T10:46:29;13.00;99.90
32769;DHT22;23049;54.304;8.826;2023-05-07T10:49:05;13.10;99.90
32769;DHT22;23049;54.304;8.826;2023-05-07T10:51:21;13.40;99.90
32769;DHT22;23049;54.304;8.826;2023-05-07T10:53:47;13.70;99.90
32769;DHT22;23049;54.304;8.826;2023-05-07T10:58:44;13.90;99.90
32769;DHT22;23049;54.304;8.826;2023-05-07T11:01:10;13.90;99.90
32769;DHT22;23049;54.304;8.826;2023-05-07T11:04:11;13.80;99.90
32769;DHT22;23049;54.304;8.826;2023-05-07T11:06:23;13.50;99.90
32769;DHT22;23049;54.304;8.826;2023-05-07T11:11:17;13.80;99.90
32769;DHT22;23049;54.304;8.826;2023-05-07T11:16:18;14.30;99.90
32769;DHT22;23049;54.304;8.826;2023-05-07T11:18:47;14.50;99.90
32769;DHT22;23049;54.304;8.826;2023-05-07T11:21:31;14.40;99.90
32769;DHT22;23049;54.304;8.826;2023-05-07T11:23:56;14.70;99.90
32769;DHT22;23049;54.304;8.826;2023-05-07T11:26:22;14.80;99.90
32769;DHT22;23049;54.304;8.826;2023-05-07T11:28:48;15.00;99.90
32769;DHT22;23049;54.304;8.826;2023-05-07T11:31:14;15.00;99.90
32769;DHT22;23049;54.304;8.826;2023-05-07T11:33:41;15.30;99.90
32769;DHT22;23049;54.304;8.826;2023-05-07T11:36:08;15.30;99.90
32769;DHT22;23049;54.304;8.826;2023-05-07T11:38:34;15.40;99.90
32769;DHT22;23049;54.304;8.826;2023-05-07T11:41:00;15.50;99.90
32769;DHT22;23049;54.304;8.826;2023-05-07T11:43:27;15.40;99.90
32769;DHT22;23049;54.304;8.826;2023-05-07T11:45:52;15.30;99.90
32769;DHT22;23049;54.304;8.826;2023-05-07T11:48:18;15.30;99.90
32769;DHT22;23049;54.304;8.826;2023-05-07T11:50:54;15.10;99.90
32769;DHT22;23049;54.304;8.826;2023-05-07T11:53:25;15.00;99.90
32769;DHT22;23049;54.304;8.826;2023-05-07T11:55:56;15.20;99.90
32769;DHT22;23049;54.304;8.826;2023-05-07T11:58:23;14.90;99.90
32769;DHT22;23049;54.304;8.826;2023-05-07T12:00:52;14.50;99.90
32769;DHT22;23049;54.304;8.826;2023-05-07T12:03:18;14.80;99.90
32769;DHT22;23049;54.304;8.826;2023-05-07T12:05:44;15.20;99.90
32769;DHT22;23049;54.304;8.826;2023-05-07T12:08:13;15.40;99.90
32769;DHT22;23049;54.304;8.826;2023-05-07T12:10:42;15.80;99.90
32769;DHT22;23049;54.304;8.826;2023-05-07T12:13:17;16.00;99.90
32769;DHT22;23049;54.304;8.826;2023-05-07T12:15:43;16.00;99.90
32769;DHT22;23049;54.304;8.826;2023-05-07T12:18:08;16.10;99.90
32769;DHT22;23049;54.304;8.826;2023-05-07T12:20:35;16.00;99.90
32769;DHT22;23049;54.304;8.826;2023-05-07T12:23:01;16.00;99.90
32769;DHT22;23049;54.304;8.826;2023-05-07T12:25:26;16.00;99.90
32769;DHT22;23049;54.304;8.826;2023-05-07T12:27:52;16.00;99.90
32769;DHT22;23049;54.304;8.826;2023-05-07T12:30:18;16.20;99.90
32769;DHT22;23049;54.304;8.826;2023-05-07T12:32:44;16.40;99.90
32769;DHT22;23049;54.304;8.826;2023-05-07T12:35:10;16.20;99.90
32769;DHT22;23049;54.304;8.826;2023-05-07T12:37:35;16.30;99.90
32769;DHT22;23049;54.304;8.826;2023-05-07T12:42:38;16.40;99.90
32769;DHT22;23049;54.304;8.826;2023-05-07T12:45:12;16.60;99.90
32769;DHT22;23049;54.304;8.826;2023-05-07T12:47:38;16.70;99.90
32769;DHT22;23049;54.304;8.826;2023-05-07T12:50:07;16.50;99.90
32769;DHT22;23049;54.304;8.826;2023-05-07T12:52:33;16.50;99.90
32769;DHT22;23049;54.304;8.826;2023-05-07T12:55:04;16.60;99.90
32769;DHT22;23049;54.304;8.826;2023-05-07T12:57:29;16.00;99.90
32769;DHT22;23049;54.304;8.826;2023-05-07T12:59:57;15.90;99.90
32769;DHT22;23049;54.304;8.826;2023-05-07T13:02:31;16.20;99.90
32769;DHT22;23049;54.304;8.826;2023-05-07T13:04:57;16.40;99.90
32769;DHT22;23049;54.304;8.826;2023-05-07T13:07:24;16.30;99.90
32769;DHT22;23049;54.304;8.826;2023-05-07T13:09:50;15.90;99.90
32769;DHT22;23049;54.304;8.826;2023-05-07T13:12:15;16.30;99.90
32769;DHT22;23049;54.304;8.826;2023-05-07T13:14:41;16.30;99.90
32769;DHT22;23049;54.304;8.826;2023-05-07T13:17:06;16.60;99.90
32769;DHT22;23049;54.304;8.826;2023-05-07T13:19:33;16.60;99.90
32769;DHT22;23049;54.304;8.826;2023-05-07T13:21:59;16.80;99.90
32769;DHT22;23049;54.304;8.826;2023-05-07T13:24:24;17.00;99.90
32769;DHT22;23049;54.304;8.826;2023-05-07T13:26:50;17.00;99.90
32769;DHT22;23049;54.304;8.826;2023-05-07T13:29:16;17.10;99.90
32769;DHT22;23049;54.304;8.826;2023-05-07T13:31:41;17.10;99.90
32769;DHT22;23049;54.304;8.826;2023-05-07T13:34:09;17.00;99.90
32769;DHT22;23049;54.304;8.826;2023-05-07T13:36:34;16.80;99.90
32769;DHT22;23049;54.304;8.826;2023-05-07T13:39:05;17.00;99.90
32769;DHT22;23049;54.304;8.826;2023-05-07T13:41:31;16.80;99.90
32769;DHT22;23049;54.304;8.826;2023-05-07T13:43:57;16.60;99.90
32769;DHT22;23049;54.304;8.826;2023-05-07T13:46:22;16.50;99.90
32769;DHT22;23049;54.304;8.826;2023-05-07T13:48:48;16.30;99.90
32769;DHT22;23049;54.304;8.826;2023-05-07T13:51:13;16.30;99.90
32769;DHT22;23049;54.304;8.826;2023-05-07T13:53:39;16.40;99.90
32769;DHT22;23049;54.304;8.826;2023-05-07T13:56:04;16.40;99.90
32769;DHT22;23049;54.304;8.826;2023-05-07T13:58:30;16.40;99.90
32769;DHT22;23049;54.304;8.826;2023-05-07T14:00:55;16.60;99.90
32769;DHT22;23049;54.304;8.826;2023-05-07T14:03:21;16.80;99.90
32769;DHT22;23049;54.304;8.826;2023-05-07T14:05:47;16.90;99.90
32769;DHT22;23049;54.304;8.826;2023-05-07T14:08:12;16.90;99.90
32769;DHT22;23049;54.304;8.826;2023-05-07T14:10:39;17.00;99.90
32769;DHT22;23049;54.304;8.826;2023-05-07T14:13:05;17.20;99.90
32769;DHT22;23049;54.304;8.826;2023-05-07T14:15:30;17.30;99.90
32769;DHT22;23049;54.304;8.826;2023-05-07T14:17:58;17.30;99.90
32769;DHT22;23049;54.304;8.826;2023-05-07T14:20:24;17.40;99.90
32769;DHT22;23049;54.304;8.826;2023-05-07T14:22:50;17.40;99.90
32769;DHT22;23049;54.304;8.826;2023-05-07T14:25:15;17.30;99.90
32769;DHT22;23049;54.304;8.826;2023-05-07T14:27:41;17.30;99.90
32769;DHT22;23049;54.304;8.826;2023-05-07T14:30:06;17.30;99.90
32769;DHT22;23049;54.304;8.826;2023-05-07T14:32:33;17.50;99.90
32769;DHT22;23049;54.304;8.826;2023-05-07T14:34:58;17.60;99.90
32769;DHT22;23049;54.304;8.826;2023-05-07T14:37:24;17.60;99.90
32769;DHT22;23049;54.304;8.826;2023-05-07T14:39:49;17.80;99.90
32769;DHT22;23049;54.304;8.826;2023-05-07T14:42:15;17.80;99.90
32769;DHT22;23049;54.304;8.826;2023-05-07T14:44:40;17.60;99.90
32769;DHT22;23049;54.304;8.826;2023-05-07T14:47:06;17.60;99.90
32769;DHT22;23049;54.304;8.826;2023-05-07T14:49:33;17.10;99.90
32769;DHT22;23049;54.304;8.826;2023-05-07T14:51:58;17.30;99.90
32769;DHT22;23049;54.304;8.826;2023-05-07T14:54:26;17.20;99.90
32769;DHT22;23049;54.304;8.826;2023-05-07T14:56:52;17.40;99.90
32769;DHT22;23049;54.304;8.826;2023-05-07T14:59:18;17.40;99.90
32769;DHT22;23049;54.304;8.826;2023-05-07T15:01:49;17.40;99.90
32769;DHT22;23049;54.304;8.826;2023-05-07T15:04:14;17.40;99.90
32769;DHT22;23049;54.304;8.826;2023-05-07T15:06:40;17.40;99.90
32769;DHT22;23049;54.304;8.826;2023-05-07T15:09:06;17.50;99.90
32769;DHT22;23049;54.304;8.826;2023-05-07T15:11:32;17.40;99.90
32769;DHT22;23049;54.304;8.826;2023-05-07T15:13:58;17.20;99.90
32769;DHT22;23049;54.304;8.826;2023-05-07T15:16:23;16.90;99.90
32769;DHT22;23049;54.304;8.826;2023-05-07T15:18:49;17.00;99.90
32769;DHT22;23049;54.304;8.826;2023-05-07T15:21:14;16.80;99.90
32769;DHT22;23049;54.304;8.826;2023-05-07T15:23:40;16.80;99.90
32769;DHT22;23049;54.304;8.826;2023-05-07T15:26:06;17.00;99.90
32769;DHT22;23049;54.304;8.826;2023-05-07T15:28:33;17.20;99.90
32769;DHT22;23049;54.304;8.826;2023-05-07T15:30:58;17.50;99.90
32769;DHT22;23049;54.304;8.826;2023-05-07T15:33:24;17.60;99.90
32769;DHT22;23049;54.304;8.826;2023-05-07T15:35:50;17.60;99.90
32769;DHT22;23049;54.304;8.826;2023-05-07T15:38:15;17.60;99.90
32769;DHT22;23049;54.304;8.826;2023-05-07T15:40:41;17.70;99.90